createdAt,value
2022-08-17T00:00:44.030Z,97.23
2022-08-17T00:03:36.047Z,97.92
2022-08-17T00:06:25.167Z,98.58
2022-08-17T00:09:10.505Z,98.96
2022-08-17T00:12:44.421Z,99.45
2022-08-17T00:15:13.500Z,99.93
2022-08-17T00:17:59.571Z,100.00
2022-08-17T00:20:45.085Z,100.00
2022-08-17T00:23:30.788Z,100.00
2022-08-17T00:26:43.578Z,100.00
2022-08-17T00:29:24.419Z,100.00
2022-08-17T00:33:14.779Z,100.00
2022-08-17T00:35:19.739Z,100.00
2022-08-17T00:38:09.690Z,100.00
2022-08-17T00:41:08.382Z,100.00
2022-08-17T00:44:00.312Z,100.00
2022-08-17T00:46:48.005Z,100.00
2022-08-17T00:49:33.386Z,100.00
2022-08-17T00:52:23.207Z,100.00
2022-08-17T00:55:10.065Z,100.00
2022-08-17T00:57:58.806Z,100.00
2022-08-17T01:00:47.094Z,100.00
2022-08-17T01:03:33.630Z,100.00
2022-08-17T01:06:21.072Z,100.00
2022-08-17T01:09:09.005Z,100.00
2022-08-17T01:11:54.557Z,100.00
2022-08-17T01:14:40.648Z,100.00
2022-08-17T01:17:29.104Z,100.00
2022-08-17T01:20:14.779Z,100.00
2022-08-17T01:23:01.835Z,100.00
2022-08-17T01:25:51.250Z,100.00
2022-08-17T01:28:54.029Z,100.00
2022-08-17T01:31:46.063Z,100.00
2022-08-17T01:34:35.249Z,100.00
2022-08-17T01:37:37.047Z,100.00
2022-08-17T01:40:49.595Z,100.00
2022-08-17T01:43:52.229Z,100.00
2022-08-17T01:46:38.371Z,100.00
2022-08-17T01:49:24.004Z,100.00
2022-08-17T01:52:11.396Z,100.00
2022-08-17T01:54:57.155Z,100.00
2022-08-17T01:57:45.544Z,100.00
2022-08-17T02:00:51.760Z,100.00
2022-08-17T02:03:38.541Z,100.00
2022-08-17T02:06:27.978Z,100.00
2022-08-17T02:09:16.800Z,100.00
2022-08-17T02:12:38.278Z,100.00
2022-08-17T02:15:12.432Z,100.00
2022-08-17T02:17:57.881Z,100.00
2022-08-17T02:20:43.555Z,100.00
2022-08-17T02:23:32.022Z,100.00
2022-08-17T02:26:23.853Z,100.00
2022-08-17T02:29:12.180Z,100.00
2022-08-17T02:31:58.668Z,100.00
2022-08-17T02:34:44.230Z,100.00
2022-08-17T02:37:31.111Z,100.00
2022-08-17T02:40:17.336Z,100.00
2022-08-17T02:43:21.825Z,100.00
2022-08-17T02:46:07.251Z,100.00
2022-08-17T02:48:52.509Z,100.00
2022-08-17T02:51:37.929Z,100.00
2022-08-17T02:54:41.775Z,100.00
2022-08-17T02:57:27.503Z,100.00
2022-08-17T03:00:23.216Z,100.00
2022-08-17T03:03:10.986Z,100.00
2022-08-17T03:05:56.661Z,100.00
2022-08-17T03:08:42.034Z,100.00
2022-08-17T03:11:27.762Z,100.00
2022-08-17T03:14:13.502Z,100.00
2022-08-17T03:16:59.449Z,100.00
2022-08-17T03:19:44.982Z,100.00
2022-08-17T03:22:37.176Z,100.00
2022-08-17T03:25:31.207Z,100.00
2022-08-17T03:28:17.518Z,100.00
2022-08-17T03:31:03.205Z,100.00
2022-08-17T03:33:48.797Z,100.00
2022-08-17T03:36:36.031Z,100.00
2022-08-17T03:39:21.806Z,100.00
2022-08-17T03:42:31.348Z,100.00
2022-08-17T03:45:43.572Z,100.00
2022-08-17T03:48:47.318Z,100.00
2022-08-17T03:51:51.298Z,100.00
2022-08-17T03:54:55.932Z,100.00
2022-08-17T03:57:41.535Z,100.00
2022-08-17T04:00:27.863Z,100.00
2022-08-17T04:03:14.330Z,100.00
2022-08-17T04:06:01.014Z,100.00
2022-08-17T04:08:46.600Z,100.00
2022-08-17T04:11:33.425Z,100.00
2022-08-17T04:14:19.311Z,100.00
2022-08-17T04:17:05.803Z,100.00
2022-08-17T04:19:52.453Z,100.00
2022-08-17T04:22:38.222Z,100.00
2022-08-17T04:25:24.769Z,100.00
2022-08-17T04:28:15.978Z,100.00
2022-08-17T04:31:01.816Z,100.00
2022-08-17T04:33:47.281Z,100.00
2022-08-17T04:36:32.726Z,100.00
2022-08-17T04:39:18.040Z,100.00
2022-08-17T04:42:09.502Z,100.00
2022-08-17T04:44:54.883Z,100.00
2022-08-17T04:47:40.815Z,100.00
2022-08-17T04:50:26.344Z,100.00
2022-08-17T04:53:13.941Z,100.00
2022-08-17T04:55:59.394Z,100.00
2022-08-17T04:58:50.756Z,100.00
2022-08-17T05:01:38.982Z,100.00
2022-08-17T05:04:34.037Z,100.00
2022-08-17T05:07:24.015Z,100.00
2022-08-17T05:10:10.858Z,100.00
2022-08-17T05:13:09.048Z,100.00
2022-08-17T05:16:04.715Z,100.00
2022-08-17T05:18:50.869Z,100.00
2022-08-17T05:21:36.338Z,100.00
2022-08-17T05:24:42.850Z,100.00
2022-08-17T05:27:32.226Z,100.00
2022-08-17T05:30:22.164Z,100.00
2022-08-17T05:33:17.469Z,100.00
2022-08-17T05:36:06.113Z,100.00
2022-08-17T05:38:51.867Z,100.00
2022-08-17T05:41:37.278Z,100.00
2022-08-17T05:44:22.639Z,100.00
2022-08-17T05:47:09.907Z,100.00
2022-08-17T05:49:55.674Z,100.00
2022-08-17T05:52:54.300Z,100.00
2022-08-17T05:55:53.946Z,100.00
2022-08-17T05:58:58.640Z,100.00
2022-08-17T06:02:09.961Z,100.00
2022-08-17T06:05:06.363Z,100.00
2022-08-17T06:08:10.712Z,100.00
2022-08-17T06:11:26.656Z,100.00
2022-08-17T06:14:35.737Z,100.00
2022-08-17T06:17:25.180Z,100.00
2022-08-17T06:20:14.426Z,100.00
2022-08-17T06:23:08.551Z,100.00
2022-08-17T06:25:59.469Z,100.00
2022-08-17T06:28:53.822Z,100.00
2022-08-17T06:31:40.700Z,100.00
2022-08-17T06:34:26.369Z,100.00
2022-08-17T06:37:31.220Z,100.00
2022-08-17T06:41:01.727Z,100.00
2022-08-17T06:44:42.306Z,100.00
2022-08-17T06:47:55.094Z,100.00
2022-08-17T06:50:49.721Z,100.00
2022-08-17T06:53:53.344Z,100.00
2022-08-17T06:56:53.295Z,100.00
2022-08-17T06:59:55.643Z,100.00
2022-08-17T07:02:52.040Z,100.00
2022-08-17T07:05:38.695Z,100.00
2022-08-17T07:08:43.224Z,100.00
2022-08-17T07:11:47.705Z,100.00
2022-08-17T07:14:52.867Z,100.00
2022-08-17T07:17:48.043Z,100.00
2022-08-17T07:20:35.089Z,100.00
2022-08-17T07:23:39.652Z,100.00
2022-08-17T07:26:25.070Z,100.00
2022-08-17T07:29:16.457Z,100.00
2022-08-17T07:32:02.999Z,100.00
2022-08-17T07:35:11.211Z,100.00
2022-08-17T07:38:25.813Z,100.00
2022-08-17T07:41:12.261Z,100.00
2022-08-17T07:43:57.968Z,100.00
2022-08-17T07:47:12.502Z,100.00
2022-08-17T07:49:58.176Z,100.00
2022-08-17T07:52:50.716Z,100.00
2022-08-17T07:55:41.551Z,100.00
2022-08-17T07:58:26.844Z,100.00
2022-08-17T08:01:15.604Z,100.00
2022-08-17T08:04:58.972Z,100.00
2022-08-17T08:07:50.649Z,100.00
2022-08-17T08:10:45.273Z,100.00
2022-08-17T08:13:32.794Z,100.00
2022-08-17T08:16:26.025Z,100.00
2022-08-17T08:19:20.895Z,100.00
2022-08-17T08:22:18.847Z,100.00
2022-08-17T08:25:07.431Z,100.00
2022-08-17T08:28:16.027Z,100.00
2022-08-17T08:31:16.221Z,100.00
2022-08-17T08:34:58.817Z,100.00
2022-08-17T08:38:15.861Z,100.00
2022-08-17T08:41:13.569Z,100.00
2022-08-17T08:45:00.853Z,100.00
2022-08-17T08:47:53.901Z,100.00
2022-08-17T08:50:52.768Z,100.00
2022-08-17T08:53:55.566Z,100.00
2022-08-17T08:57:11.924Z,100.00
2022-08-17T09:00:13.381Z,100.00
2022-08-17T09:03:04.989Z,100.00
2022-08-17T09:05:50.383Z,100.00
2022-08-17T09:09:30.483Z,100.00
2022-08-17T09:12:29.375Z,100.00
2022-08-17T09:15:25.688Z,100.00
2022-08-17T09:19:02.576Z,100.00
2022-08-17T09:21:48.252Z,100.00
2022-08-17T09:24:43.910Z,100.00
2022-08-17T09:27:38.360Z,100.00
2022-08-17T09:30:25.115Z,100.00
2022-08-17T09:33:14.143Z,100.00
2022-08-17T09:36:08.402Z,100.00
2022-08-17T09:39:13.682Z,100.00
2022-08-17T09:42:03.241Z,100.00
2022-08-17T09:45:21.858Z,100.00
2022-08-17T09:48:18.042Z,100.00
2022-08-17T09:51:13.729Z,100.00
2022-08-17T09:54:20.917Z,100.00
2022-08-17T09:57:31.501Z,100.00
2022-08-17T10:00:21.559Z,100.00
2022-08-17T10:03:26.192Z,100.00
2022-08-17T10:06:41.542Z,100.00
2022-08-17T10:10:03.379Z,100.00
2022-08-17T10:13:03.194Z,100.00
2022-08-17T10:16:18.798Z,100.00
2022-08-17T10:19:18.731Z,100.00
2022-08-17T10:22:34.643Z,100.00
2022-08-17T10:25:55.018Z,100.00
2022-08-17T10:29:03.056Z,100.00
2022-08-17T10:31:52.041Z,100.00
2022-08-17T10:35:10.316Z,100.00
2022-08-17T10:38:24.369Z,100.00
2022-08-17T10:41:40.676Z,100.00
2022-08-17T10:44:45.815Z,100.00
2022-08-17T10:48:07.245Z,100.00
2022-08-17T10:50:56.085Z,100.00
2022-08-17T10:53:41.830Z,100.00
2022-08-17T10:56:45.091Z,100.00
2022-08-17T10:59:36.673Z,100.00
2022-08-17T11:02:50.603Z,100.00
2022-08-17T11:06:19.488Z,100.00
2022-08-17T11:09:37.295Z,100.00
2022-08-17T11:13:01.471Z,100.00
2022-08-17T11:16:20.482Z,100.00
2022-08-17T11:19:34.025Z,100.00
2022-08-17T11:22:19.529Z,100.00
2022-08-17T11:25:18.177Z,100.00
2022-08-17T11:28:18.104Z,100.00
2022-08-17T11:31:37.971Z,100.00
2022-08-17T11:34:31.097Z,100.00
2022-08-17T11:37:19.640Z,100.00
2022-08-17T11:40:44.649Z,100.00
2022-08-17T11:43:55.681Z,100.00
2022-08-17T11:47:26.709Z,100.00
2022-08-17T11:50:46.193Z,100.00
2022-08-17T11:53:37.870Z,100.00
2022-08-17T11:56:41.635Z,100.00
2022-08-17T11:59:33.483Z,100.00
2022-08-17T12:02:35.169Z,100.00
2022-08-17T12:05:22.080Z,100.00
2022-08-17T12:08:12.211Z,100.00
2022-08-17T12:12:01.578Z,100.00
2022-08-17T12:17:55.424Z,100.00
2022-08-17T12:20:47.163Z,100.00
2022-08-17T12:24:06.635Z,100.00
2022-08-17T12:27:04.497Z,100.00
2022-08-17T12:29:50.071Z,100.00
2022-08-17T12:32:37.030Z,100.00
2022-08-17T12:35:35.402Z,100.00
2022-08-17T12:38:32.646Z,100.00
2022-08-17T12:41:45.329Z,100.00
2022-08-17T12:44:34.535Z,100.00
2022-08-17T12:47:23.122Z,100.00
2022-08-17T12:50:28.253Z,100.00
2022-08-17T12:53:20.424Z,100.00
2022-08-17T12:56:11.982Z,100.00
2022-08-17T12:58:58.053Z,100.00
2022-08-17T13:01:43.856Z,100.00
2022-08-17T13:04:29.895Z,100.00
2022-08-17T13:07:35.744Z,100.00
2022-08-17T13:10:34.196Z,100.00
2022-08-17T13:13:34.981Z,100.00
2022-08-17T13:16:24.852Z,100.00
2022-08-17T13:19:39.715Z,100.00
2022-08-17T13:22:29.574Z,100.00
2022-08-17T13:25:16.829Z,100.00
2022-08-17T13:28:02.663Z,100.00
2022-08-17T13:30:48.213Z,100.00
2022-08-17T13:33:43.427Z,100.00
2022-08-17T13:36:33.711Z,100.00
2022-08-17T13:39:25.263Z,100.00
2022-08-17T13:42:32.161Z,100.00
2022-08-17T13:45:35.355Z,100.00
2022-08-17T13:48:26.937Z,100.00
2022-08-17T13:51:17.225Z,100.00
2022-08-17T13:54:05.731Z,100.00
2022-08-17T13:57:02.039Z,100.00
2022-08-17T13:59:54.600Z,100.00
2022-08-17T14:02:41.400Z,100.00
2022-08-17T14:05:27.917Z,100.00
2022-08-17T14:08:15.710Z,100.00
2022-08-17T14:11:01.722Z,100.00
2022-08-17T14:13:47.257Z,100.00
2022-08-17T14:16:32.870Z,100.00
2022-08-17T14:19:19.070Z,100.00
2022-08-17T14:22:09.269Z,100.00
2022-08-17T14:24:54.983Z,100.00
2022-08-17T14:27:52.373Z,100.00
2022-08-17T14:30:41.200Z,100.00
2022-08-17T14:33:28.632Z,100.00
2022-08-17T14:36:14.065Z,100.00
2022-08-17T14:38:59.562Z,100.00
2022-08-17T14:41:45.634Z,100.00
2022-08-17T14:44:31.383Z,100.00
2022-08-17T14:47:17.315Z,100.00
2022-08-17T14:50:04.711Z,100.00
2022-08-17T14:52:56.433Z,100.00
2022-08-17T14:55:46.936Z,100.00
2022-08-17T14:58:33.030Z,100.00
2022-08-17T15:01:20.636Z,100.00
2022-08-17T15:04:07.210Z,100.00
2022-08-17T15:06:52.880Z,100.00
2022-08-17T15:09:39.178Z,100.00
2022-08-17T15:12:28.658Z,100.00
2022-08-17T15:15:17.909Z,100.00
2022-08-17T15:18:03.994Z,100.00
2022-08-17T15:20:50.339Z,100.00
2022-08-17T15:23:36.095Z,99.91
2022-08-17T15:26:26.084Z,94.78
2022-08-17T15:29:11.740Z,98.23
2022-08-17T15:32:00.576Z,94.33
2022-08-17T15:34:46.709Z,92.89
2022-08-17T15:37:32.248Z,87.70
2022-08-17T15:40:18.109Z,85.49
2022-08-17T15:43:06.224Z,81.80
2022-08-17T15:46:03.011Z,84.64
2022-08-17T15:48:51.784Z,82.18
2022-08-17T15:51:37.755Z,82.00
2022-08-17T15:54:23.602Z,82.03
2022-08-17T15:57:09.384Z,83.69
2022-08-17T15:59:58.734Z,88.89
2022-08-17T16:03:46.253Z,89.22
2022-08-17T16:05:50.983Z,88.10
2022-08-17T16:08:38.415Z,89.96
2022-08-17T16:11:26.050Z,88.57
2022-08-17T16:14:11.842Z,90.67
2022-08-17T16:17:00.139Z,91.85
2022-08-17T16:19:45.802Z,90.57
2022-08-17T16:22:39.613Z,91.96
2022-08-17T16:25:47.207Z,93.04
2022-08-17T16:28:36.529Z,91.70
2022-08-17T16:31:22.549Z,93.86
2022-08-17T16:34:17.372Z,94.10
2022-08-17T16:37:04.543Z,95.91
2022-08-17T16:39:49.947Z,95.56
2022-08-17T16:42:37.699Z,96.83
2022-08-17T16:45:26.423Z,97.74
2022-08-17T16:48:13.235Z,100.00
2022-08-17T16:51:03.470Z,97.90
2022-08-17T16:53:58.680Z,100.00
2022-08-17T16:56:44.914Z,100.00
2022-08-17T16:59:40.962Z,100.00
2022-08-17T17:02:33.761Z,100.00
2022-08-17T17:05:55.106Z,100.00
2022-08-17T17:08:52.098Z,100.00
2022-08-17T17:11:42.568Z,100.00
2022-08-17T17:14:37.706Z,100.00
2022-08-17T17:17:33.973Z,100.00
2022-08-17T17:20:29.369Z,100.00
2022-08-17T17:23:47.204Z,100.00
2022-08-17T17:27:00.517Z,100.00
2022-08-17T17:30:13.731Z,100.00
2022-08-17T17:33:06.336Z,100.00
2022-08-17T17:35:51.753Z,100.00
2022-08-17T17:38:52.967Z,100.00
2022-08-17T17:42:07.794Z,100.00
2022-08-17T17:45:07.828Z,100.00
2022-08-17T17:47:53.450Z,100.00
2022-08-17T17:50:49.377Z,100.00
2022-08-17T17:53:57.533Z,100.00
2022-08-17T17:57:07.438Z,100.00
2022-08-17T18:00:11.198Z,100.00
2022-08-17T18:03:29.201Z,100.00
2022-08-17T18:06:56.301Z,100.00
2022-08-17T18:10:01.422Z,100.00
2022-08-17T18:12:48.464Z,100.00
2022-08-17T18:15:51.255Z,100.00
2022-08-17T18:18:39.069Z,100.00
2022-08-17T18:21:32.442Z,100.00
2022-08-17T18:24:31.361Z,100.00
2022-08-17T18:27:24.641Z,100.00
2022-08-17T18:30:13.239Z,100.00
2022-08-17T18:33:23.143Z,100.00
2022-08-17T18:36:10.300Z,100.00
2022-08-17T18:39:34.508Z,100.00
2022-08-17T18:42:26.999Z,100.00
2022-08-17T18:45:13.988Z,100.00
2022-08-17T18:47:59.633Z,100.00
2022-08-17T18:50:45.439Z,100.00
2022-08-17T18:53:41.439Z,100.00
2022-08-17T18:56:33.238Z,100.00
2022-08-17T18:59:21.850Z,100.00
2022-08-17T19:02:20.690Z,100.00
2022-08-17T19:05:25.564Z,100.00
2022-08-17T19:08:31.262Z,100.00
2022-08-17T19:11:33.749Z,100.00
2022-08-17T19:14:20.750Z,100.00
2022-08-17T19:17:16.875Z,100.00
2022-08-17T19:20:10.260Z,100.00
2022-08-17T19:23:33.378Z,100.00
2022-08-17T19:26:55.382Z,100.00
2022-08-17T19:29:48.374Z,100.00
2022-08-17T19:32:35.926Z,100.00
2022-08-17T19:35:25.205Z,100.00
2022-08-17T19:38:49.097Z,100.00
2022-08-17T19:41:45.673Z,100.00
2022-08-17T19:44:57.806Z,100.00
2022-08-17T19:47:55.145Z,100.00
2022-08-17T19:50:56.173Z,100.00
2022-08-17T19:54:06.318Z,100.00
2022-08-17T19:57:02.017Z,100.00
2022-08-17T20:00:10.651Z,100.00
2022-08-17T20:03:16.576Z,100.00
2022-08-17T20:06:13.189Z,100.00
2022-08-17T20:09:10.526Z,100.00
2022-08-17T20:12:05.150Z,100.00
2022-08-17T20:14:57.497Z,100.00
2022-08-17T20:17:46.444Z,100.00
2022-08-17T20:20:54.771Z,100.00
2022-08-17T20:23:44.175Z,100.00
2022-08-17T20:26:39.759Z,100.00
2022-08-17T20:29:40.396Z,100.00
2022-08-17T20:32:29.200Z,100.00
2022-08-17T20:35:30.597Z,100.00
2022-08-17T20:38:39.130Z,100.00
2022-08-17T20:41:30.400Z,100.00
2022-08-17T20:44:33.141Z,100.00
2022-08-17T20:47:27.199Z,100.00
2022-08-17T20:50:25.947Z,100.00
2022-08-17T20:53:49.414Z,100.00
2022-08-17T20:56:43.906Z,100.00
2022-08-17T20:59:31.484Z,100.00
2022-08-17T21:02:22.690Z,100.00
2022-08-17T21:05:30.160Z,100.00
2022-08-17T21:08:18.640Z,100.00
2022-08-17T21:11:56.737Z,100.00
2022-08-17T21:14:44.938Z,100.00
2022-08-17T21:17:43.856Z,100.00
2022-08-17T21:20:42.049Z,100.00
2022-08-17T21:23:44.323Z,100.00
2022-08-17T21:27:01.108Z,100.00
2022-08-17T21:30:01.831Z,100.00
2022-08-17T21:33:16.861Z,100.00
2022-08-17T21:36:11.875Z,100.00
2022-08-17T21:39:06.555Z,100.00
2022-08-17T21:41:57.007Z,100.00
2022-08-17T21:44:49.481Z,100.00
2022-08-17T21:47:35.465Z,100.00
2022-08-17T21:50:25.197Z,100.00
2022-08-17T21:53:21.895Z,100.00
2022-08-17T21:56:08.800Z,100.00
2022-08-17T21:58:59.627Z,100.00
2022-08-17T22:01:53.020Z,100.00
2022-08-17T22:04:41.747Z,100.00
2022-08-17T22:07:43.989Z,100.00
2022-08-17T22:10:43.066Z,100.00
2022-08-17T22:13:30.125Z,100.00
2022-08-17T22:16:28.820Z,100.00
2022-08-17T22:19:15.338Z,100.00
2022-08-17T22:22:19.856Z,100.00
2022-08-17T22:25:19.544Z,100.00
2022-08-17T22:28:10.915Z,100.00
2022-08-17T22:31:03.608Z,100.00
2022-08-17T22:34:09.691Z,100.00
2022-08-17T22:37:26.729Z,100.00
2022-08-17T22:40:30.574Z,100.00
2022-08-17T22:43:21.259Z,100.00
2022-08-17T22:46:12.578Z,100.00
2022-08-17T22:48:59.645Z,100.00
2022-08-17T22:51:45.463Z,100.00
2022-08-17T22:54:49.796Z,100.00
2022-08-17T22:57:54.960Z,100.00
2022-08-17T23:00:43.906Z,100.00
2022-08-17T23:03:30.139Z,100.00
2022-08-17T23:06:15.608Z,100.00
2022-08-17T23:09:04.139Z,100.00
2022-08-17T23:11:53.427Z,100.00
2022-08-17T23:14:45.470Z,100.00
2022-08-17T23:17:37.408Z,100.00
2022-08-17T23:20:23.272Z,100.00
2022-08-17T23:23:11.753Z,100.00
2022-08-17T23:25:57.278Z,100.00
2022-08-17T23:28:43.915Z,100.00
2022-08-17T23:31:33.075Z,100.00
2022-08-17T23:34:19.187Z,100.00
2022-08-17T23:37:05.737Z,100.00
2022-08-17T23:39:51.060Z,100.00
2022-08-17T23:42:39.850Z,100.00
2022-08-17T23:45:29.157Z,100.00
2022-08-17T23:48:14.582Z,100.00
2022-08-17T23:51:20.348Z,100.00
2022-08-17T23:54:13.463Z,100.00
2022-08-17T23:56:59.643Z,100.00
2022-08-17T23:59:45.962Z,100.00
